sensor_id;sensor_type;location;lat;lon;timestamp;P1;durP1;ratioP1;P2;durP2;ratioP2
14799;SDS011;7491;57.750;11.970;2023-08-12T00:01:02;7.15;;;4.70;;
14799;SDS011;7491;57.750;11.970;2023-08-12T00:03:31;13.15;;;5.63;;
14799;SDS011;7491;57.750;11.970;2023-08-12T00:05:58;6.05;;;5.05;;
14799;SDS011;7491;57.750;11.970;2023-08-12T00:08:27;8.40;;;5.18;;
14799;SDS011;7491;57.750;11.970;2023-08-12T00:10:54;10.18;;;5.28;;
14799;SDS011;7491;57.750;11.970;2023-08-12T00:13:22;8.20;;;5.20;;
14799;SDS011;7491;57.750;11.970;2023-08-12T00:15:49;8.45;;;5.00;;
14799;SDS011;7491;57.750;11.970;2023-08-12T00:18:16;10.48;;;5.32;;
14799;SDS011;7491;57.750;11.970;2023-08-12T00:20:42;11.18;;;5.50;;
14799;SDS011;7491;57.750;11.970;2023-08-12T00:23:09;8.95;;;5.28;;
14799;SDS011;7491;57.750;11.970;2023-08-12T00:25:36;8.85;;;5.75;;
14799;SDS011;7491;57.750;11.970;2023-08-12T00:28:03;10.18;;;5.32;;
14799;SDS011;7491;57.750;11.970;2023-08-12T00:30:31;11.77;;;5.40;;
14799;SDS011;7491;57.750;11.970;2023-08-12T00:32:58;11.45;;;6.40;;
14799;SDS011;7491;57.750;11.970;2023-08-12T00:35:24;14.50;;;6.25;;
14799;SDS011;7491;57.750;11.970;2023-08-12T00:37:51;7.70;;;5.68;;
14799;SDS011;7491;57.750;11.970;2023-08-12T00:40:18;11.45;;;5.97;;
14799;SDS011;7491;57.750;11.970;2023-08-12T00:42:44;9.73;;;5.60;;
14799;SDS011;7491;57.750;11.970;2023-08-12T00:45:12;10.02;;;5.72;;
14799;SDS011;7491;57.750;11.970;2023-08-12T00:47:40;8.93;;;5.45;;
14799;SDS011;7491;57.750;11.970;2023-08-12T00:50:08;10.15;;;6.10;;
14799;SDS011;7491;57.750;11.970;2023-08-12T00:52:37;11.13;;;6.13;;
14799;SDS011;7491;57.750;11.970;2023-08-12T00:55:04;5.82;;;5.28;;
14799;SDS011;7491;57.750;11.970;2023-08-12T00:57:31;7.53;;;5.55;;
14799;SDS011;7491;57.750;11.970;2023-08-12T00:59:58;9.65;;;6.20;;
14799;SDS011;7491;57.750;11.970;2023-08-12T01:02:25;9.50;;;6.03;;
14799;SDS011;7491;57.750;11.970;2023-08-12T01:04:53;12.93;;;5.93;;
14799;SDS011;7491;57.750;11.970;2023-08-12T01:07:20;7.95;;;6.32;;
14799;SDS011;7491;57.750;11.970;2023-08-12T01:09:47;6.03;;;5.38;;
14799;SDS011;7491;57.750;11.970;2023-08-12T01:12:15;9.82;;;6.15;;
14799;SDS011;7491;57.750;11.970;2023-08-12T01:14:49;11.55;;;6.22;;
14799;SDS011;7491;57.750;11.970;2023-08-12T01:17:19;7.75;;;5.22;;
14799;SDS011;7491;57.750;11.970;2023-08-12T01:19:47;7.53;;;5.93;;
14799;SDS011;7491;57.750;11.970;2023-08-12T01:22:15;9.73;;;6.38;;
14799;SDS011;7491;57.750;11.970;2023-08-12T01:24:45;10.45;;;5.63;;
14799;SDS011;7491;57.750;11.970;2023-08-12T01:27:12;9.10;;;5.95;;
14799;SDS011;7491;57.750;11.970;2023-08-12T01:29:39;8.40;;;6.10;;
14799;SDS011;7491;57.750;11.970;2023-08-12T01:32:11;9.13;;;6.32;;
14799;SDS011;7491;57.750;11.970;2023-08-12T01:34:47;9.07;;;5.82;;
14799;SDS011;7491;57.750;11.970;2023-08-12T01:37:21;10.63;;;6.18;;
14799;SDS011;7491;57.750;11.970;2023-08-12T01:39:52;11.02;;;5.57;;
14799;SDS011;7491;57.750;11.970;2023-08-12T01:42:21;8.95;;;5.30;;
14799;SDS011;7491;57.750;11.970;2023-08-12T01:44:49;7.60;;;5.53;;
14799;SDS011;7491;57.750;11.970;2023-08-12T01:47:16;10.38;;;5.57;;
14799;SDS011;7491;57.750;11.970;2023-08-12T01:49:43;8.70;;;5.38;;
14799;SDS011;7491;57.750;11.970;2023-08-12T01:52:09;12.13;;;5.70;;
14799;SDS011;7491;57.750;11.970;2023-08-12T01:54:36;11.15;;;5.47;;
14799;SDS011;7491;57.750;11.970;2023-08-12T01:57:05;10.35;;;4.70;;
14799;SDS011;7491;57.750;11.970;2023-08-12T01:59:33;10.00;;;4.78;;
14799;SDS011;7491;57.750;11.970;2023-08-12T02:02:00;7.53;;;4.85;;
14799;SDS011;7491;57.750;11.970;2023-08-12T02:04:27;7.25;;;4.93;;
14799;SDS011;7491;57.750;11.970;2023-08-12T02:06:55;10.15;;;4.85;;
14799;SDS011;7491;57.750;11.970;2023-08-12T02:09:22;8.85;;;4.43;;
14799;SDS011;7491;57.750;11.970;2023-08-12T02:11:49;7.93;;;4.70;;
14799;SDS011;7491;57.750;11.970;2023-08-12T02:14:17;8.27;;;4.60;;
14799;SDS011;7491;57.750;11.970;2023-08-12T02:16:43;6.82;;;4.22;;
14799;SDS011;7491;57.750;11.970;2023-08-12T02:19:10;5.43;;;4.60;;
14799;SDS011;7491;57.750;11.970;2023-08-12T02:21:37;8.50;;;4.38;;
14799;SDS011;7491;57.750;11.970;2023-08-12T02:24:04;7.65;;;4.93;;
14799;SDS011;7491;57.750;11.970;2023-08-12T02:26:31;7.10;;;4.85;;
14799;SDS011;7491;57.750;11.970;2023-08-12T02:28:58;7.60;;;4.47;;
14799;SDS011;7491;57.750;11.970;2023-08-12T02:31:26;10.02;;;4.47;;
14799;SDS011;7491;57.750;11.970;2023-08-12T02:33:53;8.07;;;4.43;;
14799;SDS011;7491;57.750;11.970;2023-08-12T02:36:19;7.05;;;4.38;;
14799;SDS011;7491;57.750;11.970;2023-08-12T02:38:46;6.40;;;4.32;;
14799;SDS011;7491;57.750;11.970;2023-08-12T02:41:13;9.45;;;4.68;;
14799;SDS011;7491;57.750;11.970;2023-08-12T02:43:40;7.35;;;4.57;;
14799;SDS011;7491;57.750;11.970;2023-08-12T02:46:07;7.45;;;4.28;;
14799;SDS011;7491;57.750;11.970;2023-08-12T02:48:35;10.50;;;4.93;;
14799;SDS011;7491;57.750;11.970;2023-08-12T02:51:02;8.82;;;4.18;;
14799;SDS011;7491;57.750;11.970;2023-08-12T02:53:29;9.20;;;4.68;;
14799;SDS011;7491;57.750;11.970;2023-08-12T02:55:55;8.65;;;4.50;;
14799;SDS011;7491;57.750;11.970;2023-08-12T02:58:24;10.52;;;5.38;;
14799;SDS011;7491;57.750;11.970;2023-08-12T03:00:51;7.90;;;4.90;;
14799;SDS011;7491;57.750;11.970;2023-08-12T03:03:21;13.10;;;5.22;;
14799;SDS011;7491;57.750;11.970;2023-08-12T03:05:49;7.15;;;4.22;;
14799;SDS011;7491;57.750;11.970;2023-08-12T03:08:15;7.72;;;4.68;;
14799;SDS011;7491;57.750;11.970;2023-08-12T03:10:45;7.40;;;4.57;;
14799;SDS011;7491;57.750;11.970;2023-08-12T03:13:11;8.15;;;4.53;;
14799;SDS011;7491;57.750;11.970;2023-08-12T03:15:38;8.52;;;4.60;;
14799;SDS011;7491;57.750;11.970;2023-08-12T03:18:05;7.93;;;4.30;;
14799;SDS011;7491;57.750;11.970;2023-08-12T03:20:32;7.53;;;4.35;;
14799;SDS011;7491;57.750;11.970;2023-08-12T03:23:00;5.28;;;4.72;;
14799;SDS011;7491;57.750;11.970;2023-08-12T03:25:28;5.97;;;4.18;;
14799;SDS011;7491;57.750;11.970;2023-08-12T03:27:54;8.57;;;4.90;;
14799;SDS011;7491;57.750;11.970;2023-08-12T03:30:21;10.55;;;4.97;;
14799;SDS011;7491;57.750;11.970;2023-08-12T03:32:47;8.63;;;3.90;;
14799;SDS011;7491;57.750;11.970;2023-08-12T03:35:14;7.40;;;4.57;;
14799;SDS011;7491;57.750;11.970;2023-08-12T03:37:41;7.28;;;4.45;;
14799;SDS011;7491;57.750;11.970;2023-08-12T03:40:10;8.45;;;4.10;;
14799;SDS011;7491;57.750;11.970;2023-08-12T03:42:37;13.73;;;4.68;;
14799;SDS011;7491;57.750;11.970;2023-08-12T03:45:04;11.48;;;4.45;;
14799;SDS011;7491;57.750;11.970;2023-08-12T03:47:31;7.72;;;4.03;;
14799;SDS011;7491;57.750;11.970;2023-08-12T03:49:59;10.18;;;4.50;;
14799;SDS011;7491;57.750;11.970;2023-08-12T03:52:26;11.60;;;4.38;;
14799;SDS011;7491;57.750;11.970;2023-08-12T03:54:52;11.63;;;4.60;;
14799;SDS011;7491;57.750;11.970;2023-08-12T03:57:20;9.60;;;4.53;;
14799;SDS011;7491;57.750;11.970;2023-08-12T03:59:47;8.20;;;4.55;;
14799;SDS011;7491;57.750;11.970;2023-08-12T04:02:13;5.53;;;4.45;;
14799;SDS011;7491;57.750;11.970;2023-08-12T04:04:40;10.95;;;4.40;;
14799;SDS011;7491;57.750;11.970;2023-08-12T04:07:08;8.05;;;4.28;;
14799;SDS011;7491;57.750;11.970;2023-08-12T04:09:35;16.30;;;4.57;;
14799;SDS011;7491;57.750;11.970;2023-08-12T04:12:02;8.65;;;4.65;;
14799;SDS011;7491;57.750;11.970;2023-08-12T04:14:31;9.77;;;4.47;;
14799;SDS011;7491;57.750;11.970;2023-08-12T04:16:57;7.18;;;4.50;;
14799;SDS011;7491;57.750;11.970;2023-08-12T04:19:24;10.25;;;4.88;;
14799;SDS011;7491;57.750;11.970;2023-08-12T04:21:51;7.25;;;4.03;;
14799;SDS011;7491;57.750;11.970;2023-08-12T04:24:18;10.13;;;4.43;;
14799;SDS011;7491;57.750;11.970;2023-08-12T04:26:44;8.88;;;3.80;;
14799;SDS011;7491;57.750;11.970;2023-08-12T04:29:11;10.43;;;4.53;;
14799;SDS011;7491;57.750;11.970;2023-08-12T04:31:39;8.02;;;4.45;;
14799;SDS011;7491;57.750;11.970;2023-08-12T04:34:06;11.18;;;4.82;;
14799;SDS011;7491;57.750;11.970;2023-08-12T04:36:33;11.15;;;4.43;;
14799;SDS011;7491;57.750;11.970;2023-08-12T04:39:00;7.88;;;4.50;;
14799;SDS011;7491;57.750;11.970;2023-08-12T04:41:26;7.75;;;4.30;;
14799;SDS011;7491;57.750;11.970;2023-08-12T04:43:53;7.03;;;4.10;;
14799;SDS011;7491;57.750;11.970;2023-08-12T04:46:19;10.50;;;4.72;;
14799;SDS011;7491;57.750;11.970;2023-08-12T04:48:48;9.23;;;4.70;;
14799;SDS011;7491;57.750;11.970;2023-08-12T04:51:14;8.35;;;4.57;;
14799;SDS011;7491;57.750;11.970;2023-08-12T04:53:41;7.60;;;3.92;;
14799;SDS011;7491;57.750;11.970;2023-08-12T04:56:08;11.60;;;4.60;;
14799;SDS011;7491;57.750;11.970;2023-08-12T04:58:34;9.00;;;4.60;;
14799;SDS011;7491;57.750;11.970;2023-08-12T05:01:01;8.93;;;4.50;;
14799;SDS011;7491;57.750;11.970;2023-08-12T05:03:28;11.40;;;4.88;;
14799;SDS011;7491;57.750;11.970;2023-08-12T05:05:56;9.50;;;4.38;;
14799;SDS011;7491;57.750;11.970;2023-08-12T05:08:23;8.35;;;4.72;;
14799;SDS011;7491;57.750;11.970;2023-08-12T05:10:50;9.07;;;4.85;;
14799;SDS011;7491;57.750;11.970;2023-08-12T05:13:16;14.00;;;4.60;;
14799;SDS011;7491;57.750;11.970;2023-08-12T05:15:44;9.70;;;4.50;;
14799;SDS011;7491;57.750;11.970;2023-08-12T05:18:12;9.43;;;4.75;;
14799;SDS011;7491;57.750;11.970;2023-08-12T05:20:39;10.38;;;4.40;;
14799;SDS011;7491;57.750;11.970;2023-08-12T05:23:08;10.65;;;4.80;;
14799;SDS011;7491;57.750;11.970;2023-08-12T05:25:35;13.32;;;4.53;;
14799;SDS011;7491;57.750;11.970;2023-08-12T05:28:02;8.57;;;4.88;;
14799;SDS011;7491;57.750;11.970;2023-08-12T05:30:29;8.63;;;4.70;;
14799;SDS011;7491;57.750;11.970;2023-08-12T05:32:55;13.18;;;4.88;;
14799;SDS011;7491;57.750;11.970;2023-08-12T05:35:22;7.90;;;4.53;;
14799;SDS011;7491;57.750;11.970;2023-08-12T05:37:49;9.02;;;4.63;;
14799;SDS011;7491;57.750;11.970;2023-08-12T05:40:17;9.90;;;5.13;;
14799;SDS011;7491;57.750;11.970;2023-08-12T05:42:44;10.93;;;4.95;;
14799;SDS011;7491;57.750;11.970;2023-08-12T05:45:11;11.82;;;5.28;;
14799;SDS011;7491;57.750;11.970;2023-08-12T05:47:38;13.93;;;4.97;;
14799;SDS011;7491;57.750;11.970;2023-08-12T05:50:05;10.48;;;4.80;;
14799;SDS011;7491;57.750;11.970;2023-08-12T05:52:32;9.75;;;4.65;;
14799;SDS011;7491;57.750;11.970;2023-08-12T05:54:59;10.00;;;5.60;;
14799;SDS011;7491;57.750;11.970;2023-08-12T05:57:28;10.60;;;5.28;;
14799;SDS011;7491;57.750;11.970;2023-08-12T05:59:54;9.38;;;5.13;;
14799;SDS011;7491;57.750;11.970;2023-08-12T06:02:21;12.27;;;5.38;;
14799;SDS011;7491;57.750;11.970;2023-08-12T06:04:48;9.43;;;5.60;;
14799;SDS011;7491;57.750;11.970;2023-08-12T06:07:15;11.77;;;6.05;;
14799;SDS011;7491;57.750;11.970;2023-08-12T06:09:42;9.60;;;5.93;;
14799;SDS011;7491;57.750;11.970;2023-08-12T06:12:08;11.90;;;5.63;;
14799;SDS011;7491;57.750;11.970;2023-08-12T06:14:37;11.02;;;6.15;;
14799;SDS011;7491;57.750;11.970;2023-08-12T06:17:04;10.30;;;6.03;;
14799;SDS011;7491;57.750;11.970;2023-08-12T06:19:31;16.05;;;7.00;;
14799;SDS011;7491;57.750;11.970;2023-08-12T06:21:57;9.35;;;6.00;;
14799;SDS011;7491;57.750;11.970;2023-08-12T06:24:24;15.88;;;7.32;;
14799;SDS011;7491;57.750;11.970;2023-08-12T06:26:51;12.30;;;6.68;;
14799;SDS011;7491;57.750;11.970;2023-08-12T06:29:18;10.77;;;6.88;;
14799;SDS011;7491;57.750;11.970;2023-08-12T06:31:46;13.60;;;6.43;;
14799;SDS011;7491;57.750;11.970;2023-08-12T06:34:13;13.25;;;6.75;;
14799;SDS011;7491;57.750;11.970;2023-08-12T06:36:40;12.95;;;7.00;;
14799;SDS011;7491;57.750;11.970;2023-08-12T06:39:06;16.38;;;6.93;;
14799;SDS011;7491;57.750;11.970;2023-08-12T06:41:33;15.00;;;6.38;;
14799;SDS011;7491;57.750;11.970;2023-08-12T06:44:00;19.45;;;8.57;;
14799;SDS011;7491;57.750;11.970;2023-08-12T06:46:28;12.80;;;7.00;;
14799;SDS011;7491;57.750;11.970;2023-08-12T06:48:57;11.82;;;7.43;;
14799;SDS011;7491;57.750;11.970;2023-08-12T06:51:24;12.88;;;7.15;;
14799;SDS011;7491;57.750;11.970;2023-08-12T06:53:51;17.10;;;7.63;;
14799;SDS011;7491;57.750;11.970;2023-08-12T06:56:17;14.10;;;7.60;;
14799;SDS011;7491;57.750;11.970;2023-08-12T06:58:44;11.55;;;7.55;;
14799;SDS011;7491;57.750;11.970;2023-08-12T07:01:11;12.95;;;7.50;;
14799;SDS011;7491;57.750;11.970;2023-08-12T07:03:37;14.00;;;7.72;;
14799;SDS011;7491;57.750;11.970;2023-08-12T07:06:05;16.70;;;8.15;;
14799;SDS011;7491;57.750;11.970;2023-08-12T07:08:32;15.73;;;7.68;;
14799;SDS011;7491;57.750;11.970;2023-08-12T07:10:59;17.13;;;8.23;;
14799;SDS011;7491;57.750;11.970;2023-08-12T07:13:26;15.13;;;8.30;;
14799;SDS011;7491;57.750;11.970;2023-08-12T07:15:53;17.80;;;9.05;;
14799;SDS011;7491;57.750;11.970;2023-08-12T07:18:19;15.05;;;7.95;;
14799;SDS011;7491;57.750;11.970;2023-08-12T07:20:48;17.65;;;8.35;;
14799;SDS011;7491;57.750;11.970;2023-08-12T07:23:16;17.65;;;9.18;;
14799;SDS011;7491;57.750;11.970;2023-08-12T07:25:42;14.20;;;8.88;;
14799;SDS011;7491;57.750;11.970;2023-08-12T07:28:11;11.40;;;8.10;;
14799;SDS011;7491;57.750;11.970;2023-08-12T07:30:38;13.45;;;8.48;;
14799;SDS011;7491;57.750;11.970;2023-08-12T07:33:05;17.77;;;8.57;;
14799;SDS011;7491;57.750;11.970;2023-08-12T07:35:31;17.63;;;9.45;;
14799;SDS011;7491;57.750;11.970;2023-08-12T07:37:58;13.60;;;8.55;;
14799;SDS011;7491;57.750;11.970;2023-08-12T07:40:26;17.58;;;9.18;;
14799;SDS011;7491;57.750;11.970;2023-08-12T07:42:53;13.48;;;8.38;;
14799;SDS011;7491;57.750;11.970;2023-08-12T07:45:21;16.35;;;8.80;;
14799;SDS011;7491;57.750;11.970;2023-08-12T07:47:48;13.13;;;8.63;;
14799;SDS011;7491;57.750;11.970;2023-08-12T07:50:15;17.83;;;8.43;;
14799;SDS011;7491;57.750;11.970;2023-08-12T07:52:42;12.50;;;8.73;;
14799;SDS011;7491;57.750;11.970;2023-08-12T07:55:09;19.23;;;8.88;;
14799;SDS011;7491;57.750;11.970;2023-08-12T07:57:39;21.08;;;8.98;;
14799;SDS011;7491;57.750;11.970;2023-08-12T08:00:06;18.90;;;11.68;;
14799;SDS011;7491;57.750;11.970;2023-08-12T08:02:37;19.45;;;8.30;;
14799;SDS011;7491;57.750;11.970;2023-08-12T08:05:05;18.80;;;9.25;;
14799;SDS011;7491;57.750;11.970;2023-08-12T08:07:35;13.93;;;8.80;;
14799;SDS011;7491;57.750;11.970;2023-08-12T08:10:02;15.77;;;8.75;;
14799;SDS011;7491;57.750;11.970;2023-08-12T08:12:28;13.30;;;9.48;;
14799;SDS011;7491;57.750;11.970;2023-08-12T08:14:57;20.40;;;9.60;;
14799;SDS011;7491;57.750;11.970;2023-08-12T08:17:23;18.52;;;10.25;;
14799;SDS011;7491;57.750;11.970;2023-08-12T08:19:50;20.77;;;10.75;;
14799;SDS011;7491;57.750;11.970;2023-08-12T08:22:17;15.05;;;9.35;;
14799;SDS011;7491;57.750;11.970;2023-08-12T08:24:44;13.07;;;8.52;;
14799;SDS011;7491;57.750;11.970;2023-08-12T08:27:10;14.20;;;8.75;;
14799;SDS011;7491;57.750;11.970;2023-08-12T08:29:38;15.25;;;9.55;;
14799;SDS011;7491;57.750;11.970;2023-08-12T08:32:06;16.98;;;9.55;;
14799;SDS011;7491;57.750;11.970;2023-08-12T08:34:33;12.95;;;10.02;;
14799;SDS011;7491;57.750;11.970;2023-08-12T08:37:00;13.43;;;8.23;;
14799;SDS011;7491;57.750;11.970;2023-08-12T08:39:27;14.52;;;9.10;;
14799;SDS011;7491;57.750;11.970;2023-08-12T08:41:56;12.40;;;8.73;;
14799;SDS011;7491;57.750;11.970;2023-08-12T08:44:24;12.95;;;7.75;;
14799;SDS011;7491;57.750;11.970;2023-08-12T08:46:56;13.23;;;6.93;;
14799;SDS011;7491;57.750;11.970;2023-08-12T08:49:26;9.05;;;6.95;;
14799;SDS011;7491;57.750;11.970;2023-08-12T08:51:57;11.95;;;7.32;;
14799;SDS011;7491;57.750;11.970;2023-08-12T08:54:25;10.13;;;6.55;;
14799;SDS011;7491;57.750;11.970;2023-08-12T08:56:52;9.32;;;6.80;;
14799;SDS011;7491;57.750;11.970;2023-08-12T08:59:18;7.93;;;6.47;;
14799;SDS011;7491;57.750;11.970;2023-08-12T09:01:46;12.27;;;6.60;;
14799;SDS011;7491;57.750;11.970;2023-08-12T09:04:17;10.68;;;6.10;;
14799;SDS011;7491;57.750;11.970;2023-08-12T09:06:48;9.15;;;5.88;;
14799;SDS011;7491;57.750;11.970;2023-08-12T09:09:17;13.05;;;6.55;;
14799;SDS011;7491;57.750;11.970;2023-08-12T09:11:47;10.00;;;6.18;;
14799;SDS011;7491;57.750;11.970;2023-08-12T09:14:14;8.18;;;6.78;;
14799;SDS011;7491;57.750;11.970;2023-08-12T09:16:41;8.70;;;6.20;;
14799;SDS011;7491;57.750;11.970;2023-08-12T09:19:08;7.88;;;5.85;;
14799;SDS011;7491;57.750;11.970;2023-08-12T09:21:35;10.13;;;6.38;;
14799;SDS011;7491;57.750;11.970;2023-08-12T09:24:04;9.82;;;6.30;;
14799;SDS011;7491;57.750;11.970;2023-08-12T09:26:32;13.18;;;6.93;;
14799;SDS011;7491;57.750;11.970;2023-08-12T09:28:59;11.15;;;6.35;;
14799;SDS011;7491;57.750;11.970;2023-08-12T09:31:27;10.07;;;5.97;;
14799;SDS011;7491;57.750;11.970;2023-08-12T09:33:57;11.63;;;6.47;;
14799;SDS011;7491;57.750;11.970;2023-08-12T09:36:27;10.52;;;6.60;;
14799;SDS011;7491;57.750;11.970;2023-08-12T09:38:55;9.07;;;6.65;;
14799;SDS011;7491;57.750;11.970;2023-08-12T09:41:23;10.77;;;6.38;;
14799;SDS011;7491;57.750;11.970;2023-08-12T09:43:51;8.65;;;5.35;;
14799;SDS011;7491;57.750;11.970;2023-08-12T09:46:20;7.07;;;4.50;;
14799;SDS011;7491;57.750;11.970;2023-08-12T09:48:48;7.00;;;4.70;;
14799;SDS011;7491;57.750;11.970;2023-08-12T09:51:15;6.88;;;4.78;;
14799;SDS011;7491;57.750;11.970;2023-08-12T09:53:42;7.90;;;4.47;;
14799;SDS011;7491;57.750;11.970;2023-08-12T09:56:11;7.47;;;4.97;;
14799;SDS011;7491;57.750;11.970;2023-08-12T09:58:39;8.05;;;4.78;;
14799;SDS011;7491;57.750;11.970;2023-08-12T10:01:08;6.78;;;4.93;;
14799;SDS011;7491;57.750;11.970;2023-08-12T10:03:38;8.73;;;4.35;;
14799;SDS011;7491;57.750;11.970;2023-08-12T10:06:07;8.98;;;4.65;;
14799;SDS011;7491;57.750;11.970;2023-08-12T10:08:34;6.53;;;4.28;;
14799;SDS011;7491;57.750;11.970;2023-08-12T10:11:01;8.70;;;4.93;;
14799;SDS011;7491;57.750;11.970;2023-08-12T10:13:29;8.70;;;4.03;;
14799;SDS011;7491;57.750;11.970;2023-08-12T10:15:57;7.68;;;4.65;;
14799;SDS011;7491;57.750;11.970;2023-08-12T10:18:24;8.18;;;3.55;;
14799;SDS011;7491;57.750;11.970;2023-08-12T10:20:54;10.48;;;4.68;;
14799;SDS011;7491;57.750;11.970;2023-08-12T10:23:23;7.47;;;4.35;;
14799;SDS011;7491;57.750;11.970;2023-08-12T10:25:52;9.40;;;4.63;;
14799;SDS011;7491;57.750;11.970;2023-08-12T10:28:20;8.35;;;4.60;;
14799;SDS011;7491;57.750;11.970;2023-08-12T10:30:47;8.38;;;4.38;;
14799;SDS011;7491;57.750;11.970;2023-08-12T10:33:15;7.28;;;4.85;;
14799;SDS011;7491;57.750;11.970;2023-08-12T10:35:44;6.65;;;4.65;;
14799;SDS011;7491;57.750;11.970;2023-08-12T10:38:13;7.97;;;5.68;;
14799;SDS011;7491;57.750;11.970;2023-08-12T10:40:42;10.32;;;5.10;;
14799;SDS011;7491;57.750;11.970;2023-08-12T10:43:12;9.02;;;4.72;;
14799;SDS011;7491;57.750;11.970;2023-08-12T10:45:45;6.55;;;4.22;;
14799;SDS011;7491;57.750;11.970;2023-08-12T10:48:20;6.05;;;4.10;;
14799;SDS011;7491;57.750;11.970;2023-08-12T10:50:48;6.97;;;4.50;;
14799;SDS011;7491;57.750;11.970;2023-08-12T10:53:21;8.80;;;4.80;;
14799;SDS011;7491;57.750;11.970;2023-08-12T10:55:53;6.30;;;4.57;;
14799;SDS011;7491;57.750;11.970;2023-08-12T10:58:28;8.18;;;4.50;;
14799;SDS011;7491;57.750;11.970;2023-08-12T11:00:56;7.45;;;3.97;;
14799;SDS011;7491;57.750;11.970;2023-08-12T11:03:27;5.25;;;4.75;;
14799;SDS011;7491;57.750;11.970;2023-08-12T11:05:59;6.65;;;4.35;;
14799;SDS011;7491;57.750;11.970;2023-08-12T11:08:26;9.00;;;4.35;;
14799;SDS011;7491;57.750;11.970;2023-08-12T11:10:54;7.78;;;4.53;;
14799;SDS011;7491;57.750;11.970;2023-08-12T11:13:26;8.90;;;3.95;;
14799;SDS011;7491;57.750;11.970;2023-08-12T11:15:54;3.95;;;3.55;;
14799;SDS011;7491;57.750;11.970;2023-08-12T11:18:34;7.28;;;3.88;;
14799;SDS011;7491;57.750;11.970;2023-08-12T11:21:00;6.80;;;4.10;;
14799;SDS011;7491;57.750;11.970;2023-08-12T11:23:28;9.95;;;4.55;;
14799;SDS011;7491;57.750;11.970;2023-08-12T11:25:56;5.57;;;4.15;;
14799;SDS011;7491;57.750;11.970;2023-08-12T11:28:24;5.57;;;4.03;;
14799;SDS011;7491;57.750;11.970;2023-08-12T11:30:51;5.22;;;4.30;;
14799;SDS011;7491;57.750;11.970;2023-08-12T11:33:18;6.35;;;4.00;;
14799;SDS011;7491;57.750;11.970;2023-08-12T11:35:47;7.72;;;4.15;;
14799;SDS011;7491;57.750;11.970;2023-08-12T11:38:14;6.85;;;3.88;;
14799;SDS011;7491;57.750;11.970;2023-08-12T11:40:41;6.57;;;4.20;;
14799;SDS011;7491;57.750;11.970;2023-08-12T11:43:08;13.00;;;4.82;;
14799;SDS011;7491;57.750;11.970;2023-08-12T11:45:35;8.02;;;4.05;;
14799;SDS011;7491;57.750;11.970;2023-08-12T11:48:03;4.78;;;3.72;;
14799;SDS011;7491;57.750;11.970;2023-08-12T11:50:31;5.20;;;3.55;;
14799;SDS011;7491;57.750;11.970;2023-08-12T11:52:59;7.55;;;3.92;;
14799;SDS011;7491;57.750;11.970;2023-08-12T11:55:26;6.40;;;4.13;;
14799;SDS011;7491;57.750;11.970;2023-08-12T11:57:53;5.85;;;3.83;;
14799;SDS011;7491;57.750;11.970;2023-08-12T12:00:19;7.43;;;3.50;;
14799;SDS011;7491;57.750;11.970;2023-08-12T12:02:49;6.00;;;3.70;;
14799;SDS011;7491;57.750;11.970;2023-08-12T12:05:17;5.25;;;3.58;;
14799;SDS011;7491;57.750;11.970;2023-08-12T12:07:45;5.15;;;3.40;;
14799;SDS011;7491;57.750;11.970;2023-08-12T12:10:19;5.00;;;3.40;;
14799;SDS011;7491;57.750;11.970;2023-08-12T12:12:46;6.10;;;3.47;;
14799;SDS011;7491;57.750;11.970;2023-08-12T12:15:14;5.93;;;3.25;;
14799;SDS011;7491;57.750;11.970;2023-08-12T12:17:41;6.30;;;3.30;;
14799;SDS011;7491;57.750;11.970;2023-08-12T12:20:08;6.00;;;3.28;;
14799;SDS011;7491;57.750;11.970;2023-08-12T12:22:36;8.20;;;3.35;;
14799;SDS011;7491;57.750;11.970;2023-08-12T12:25:05;6.85;;;3.65;;
14799;SDS011;7491;57.750;11.970;2023-08-12T12:27:35;4.65;;;3.92;;
14799;SDS011;7491;57.750;11.970;2023-08-12T12:30:03;4.65;;;3.42;;
14799;SDS011;7491;57.750;11.970;2023-08-12T12:32:31;6.57;;;4.00;;
14799;SDS011;7491;57.750;11.970;2023-08-12T12:34:57;5.90;;;3.63;;
14799;SDS011;7491;57.750;11.970;2023-08-12T12:37:24;7.15;;;3.58;;
14799;SDS011;7491;57.750;11.970;2023-08-12T12:39:51;7.13;;;3.78;;
14799;SDS011;7491;57.750;11.970;2023-08-12T12:42:17;4.07;;;2.85;;
14799;SDS011;7491;57.750;11.970;2023-08-12T12:44:46;3.33;;;2.72;;
14799;SDS011;7491;57.750;11.970;2023-08-12T12:47:12;4.80;;;2.70;;
14799;SDS011;7491;57.750;11.970;2023-08-12T12:49:39;5.82;;;3.17;;
14799;SDS011;7491;57.750;11.970;2023-08-12T12:52:06;5.82;;;3.28;;
14799;SDS011;7491;57.750;11.970;2023-08-12T12:54:33;7.32;;;3.25;;
14799;SDS011;7491;57.750;11.970;2023-08-12T12:56:59;7.03;;;2.85;;
14799;SDS011;7491;57.750;11.970;2023-08-12T12:59:29;3.65;;;2.55;;
14799;SDS011;7491;57.750;11.970;2023-08-12T13:01:57;6.88;;;3.35;;
14799;SDS011;7491;57.750;11.970;2023-08-12T13:04:23;4.50;;;2.85;;
14799;SDS011;7491;57.750;11.970;2023-08-12T13:06:50;5.97;;;3.20;;
14799;SDS011;7491;57.750;11.970;2023-08-12T13:09:17;5.22;;;3.58;;
14799;SDS011;7491;57.750;11.970;2023-08-12T13:11:44;4.88;;;3.10;;
14799;SDS011;7491;57.750;11.970;2023-08-12T13:14:10;5.35;;;3.15;;
14799;SDS011;7491;57.750;11.970;2023-08-12T13:16:37;6.68;;;3.42;;
14799;SDS011;7491;57.750;11.970;2023-08-12T13:19:05;3.45;;;2.63;;
14799;SDS011;7491;57.750;11.970;2023-08-12T13:21:32;3.47;;;2.70;;
14799;SDS011;7491;57.750;11.970;2023-08-12T13:23:59;3.88;;;2.97;;
14799;SDS011;7491;57.750;11.970;2023-08-12T13:26:26;4.93;;;3.13;;
14799;SDS011;7491;57.750;11.970;2023-08-12T13:28:53;5.00;;;3.10;;
14799;SDS011;7491;57.750;11.970;2023-08-12T13:31:20;2.78;;;2.40;;
14799;SDS011;7491;57.750;11.970;2023-08-12T13:33:47;3.95;;;2.30;;
14799;SDS011;7491;57.750;11.970;2023-08-12T13:36:15;6.13;;;2.63;;
14799;SDS011;7491;57.750;11.970;2023-08-12T13:38:42;4.07;;;2.78;;
14799;SDS011;7491;57.750;11.970;2023-08-12T13:41:09;2.42;;;2.22;;
14799;SDS011;7491;57.750;11.970;2023-08-12T13:43:36;4.75;;;2.67;;
14799;SDS011;7491;57.750;11.970;2023-08-12T13:46:03;2.83;;;2.45;;
14799;SDS011;7491;57.750;11.970;2023-08-12T13:48:30;4.22;;;2.47;;
14799;SDS011;7491;57.750;11.970;2023-08-12T13:50:56;2.53;;;2.10;;
14799;SDS011;7491;57.750;11.970;2023-08-12T13:53:24;4.13;;;2.20;;
14799;SDS011;7491;57.750;11.970;2023-08-12T13:55:51;2.72;;;2.25;;
14799;SDS011;7491;57.750;11.970;2023-08-12T13:58:18;3.25;;;2.00;;
14799;SDS011;7491;57.750;11.970;2023-08-12T14:00:44;2.63;;;2.03;;
14799;SDS011;7491;57.750;11.970;2023-08-12T14:03:11;3.40;;;2.00;;
14799;SDS011;7491;57.750;11.970;2023-08-12T14:05:38;3.97;;;1.95;;
14799;SDS011;7491;57.750;11.970;2023-08-12T14:08:05;2.88;;;1.73;;
14799;SDS011;7491;57.750;11.970;2023-08-12T14:10:33;3.80;;;2.00;;
14799;SDS011;7491;57.750;11.970;2023-08-12T14:13:00;2.40;;;2.00;;
14799;SDS011;7491;57.750;11.970;2023-08-12T14:15:26;2.25;;;1.90;;
14799;SDS011;7491;57.750;11.970;2023-08-12T14:17:54;2.25;;;1.90;;
14799;SDS011;7491;57.750;11.970;2023-08-12T14:20:20;1.70;;;1.60;;
14799;SDS011;7491;57.750;11.970;2023-08-12T14:22:47;3.15;;;1.65;;
14799;SDS011;7491;57.750;11.970;2023-08-12T14:25:16;1.67;;;1.58;;
14799;SDS011;7491;57.750;11.970;2023-08-12T14:27:46;2.42;;;1.50;;
14799;SDS011;7491;57.750;11.970;2023-08-12T14:30:13;1.50;;;1.40;;
14799;SDS011;7491;57.750;11.970;2023-08-12T14:32:40;1.40;;;1.30;;
14799;SDS011;7491;57.750;11.970;2023-08-12T14:35:07;1.70;;;1.60;;
14799;SDS011;7491;57.750;11.970;2023-08-12T14:37:33;2.97;;;2.13;;
14799;SDS011;7491;57.750;11.970;2023-08-12T14:40:00;1.65;;;1.55;;
14799;SDS011;7491;57.750;11.970;2023-08-12T14:42:28;2.35;;;2.15;;
14799;SDS011;7491;57.750;11.970;2023-08-12T14:44:56;2.33;;;2.15;;